createdAt,value
2019-04-25T00:00:51.927Z,9.76
2019-04-25T00:01:52.406Z,9.72
2019-04-25T00:02:51.919Z,9.65
2019-04-25T00:03:53.342Z,9.64
2019-04-25T00:04:51.882Z,9.61
2019-04-25T00:05:52.289Z,9.65
2019-04-25T00:06:52.178Z,9.64
2019-04-25T00:07:51.886Z,9.60
2019-04-25T00:08:53.441Z,9.58
2019-04-25T00:09:51.827Z,9.58
2019-04-25T00:10:51.812Z,9.54
2019-04-25T00:11:52.306Z,9.57
2019-04-25T00:12:51.854Z,9.48
2019-04-25T00:13:51.781Z,9.42
2019-04-25T00:14:51.769Z,9.38
2019-04-25T00:15:51.969Z,9.36
2019-04-25T00:16:51.892Z,9.36
2019-04-25T00:17:52.202Z,9.42
2019-04-25T00:18:51.809Z,9.42
2019-04-25T00:19:52.832Z,9.43
2019-04-25T00:20:52.225Z,9.35
2019-04-25T00:21:51.744Z,9.35
2019-04-25T00:22:53.257Z,9.36
2019-04-25T00:23:51.744Z,9.32
2019-04-25T00:24:52.933Z,9.31
2019-04-25T00:25:52.698Z,9.28
2019-04-25T00:26:52.530Z,9.32
2019-04-25T00:27:51.737Z,9.36
2019-04-25T00:28:52.410Z,9.32
2019-04-25T00:29:51.694Z,9.31
2019-04-25T00:30:52.305Z,9.35
2019-04-25T00:31:52.830Z,9.33
2019-04-25T00:32:51.600Z,9.32
2019-04-25T00:33:53.241Z,9.33
2019-04-25T00:34:51.885Z,9.23
2019-04-25T00:35:52.702Z,9.21
2019-04-25T00:36:51.656Z,9.24
2019-04-25T00:37:52.539Z,9.23
2019-04-25T00:38:52.305Z,9.29
2019-04-25T00:39:51.781Z,9.28
2019-04-25T00:40:52.430Z,9.23
2019-04-25T00:41:52.043Z,9.31
2019-04-25T00:42:53.413Z,9.23
2019-04-25T00:43:52.564Z,9.15
2019-04-25T00:44:52.429Z,9.15
2019-04-25T00:45:52.676Z,9.10
2019-04-25T00:46:54.297Z,9.10
2019-04-25T00:47:52.941Z,9.08
2019-04-25T00:48:52.461Z,9.04
2019-04-25T00:49:52.361Z,9.04
2019-04-25T00:50:53.493Z,9.01
2019-04-25T00:51:52.376Z,9.01
2019-04-25T00:52:53.326Z,8.99
2019-04-25T00:53:53.634Z,8.96
2019-04-25T00:54:52.645Z,8.91
2019-04-25T00:55:52.522Z,8.86
2019-04-25T00:56:52.782Z,8.83
2019-04-25T00:57:52.550Z,8.91
2019-04-25T00:58:52.855Z,8.79
2019-04-25T00:59:52.832Z,8.81
2019-04-25T01:00:53.071Z,8.89
2019-04-25T01:01:51.903Z,8.83
2019-04-25T01:02:53.349Z,8.83
2019-04-25T01:03:53.346Z,8.80
2019-04-25T01:04:52.055Z,8.83
2019-04-25T01:05:53.289Z,8.80
2019-04-25T01:06:52.015Z,8.77
2019-04-25T01:07:52.438Z,8.87
2019-04-25T01:08:53.227Z,8.86
2019-04-25T01:09:52.423Z,8.84
2019-04-25T01:10:52.287Z,8.84
2019-04-25T01:11:52.322Z,8.87
2019-04-25T01:12:52.316Z,8.89
2019-04-25T01:13:52.510Z,8.87
2019-04-25T01:14:52.820Z,8.94
2019-04-25T01:15:52.634Z,8.94
2019-04-25T01:16:52.699Z,8.81
2019-04-25T01:17:51.554Z,8.86
2019-04-25T01:18:51.062Z,8.84
2019-04-25T01:19:51.085Z,8.87
2019-04-25T01:20:51.212Z,8.80
2019-04-25T01:21:51.194Z,8.87
2019-04-25T01:22:51.373Z,8.77
2019-04-25T01:23:51.465Z,8.74
2019-04-25T01:24:51.466Z,8.79
2019-04-25T01:25:51.593Z,8.71
2019-04-25T01:26:51.669Z,8.79
2019-04-25T01:27:51.812Z,8.76
2019-04-25T01:28:51.832Z,8.74
2019-04-25T01:29:51.227Z,8.76
2019-04-25T01:30:50.947Z,8.73
2019-04-25T01:31:50.916Z,8.77
2019-04-25T01:32:50.934Z,8.68
2019-04-25T01:33:50.900Z,8.76
2019-04-25T01:34:53.700Z,8.74
2019-04-25T01:35:50.874Z,8.61
2019-04-25T01:36:50.867Z,8.71
2019-04-25T01:37:51.106Z,8.70
2019-04-25T01:38:51.087Z,8.66
2019-04-25T01:39:51.085Z,8.59
2019-04-25T01:40:51.201Z,8.62
2019-04-25T01:41:51.287Z,8.65
2019-04-25T01:42:51.547Z,8.55
2019-04-25T01:43:53.224Z,8.52
2019-04-25T01:44:51.806Z,8.59
2019-04-25T01:45:51.717Z,8.56
2019-04-25T01:46:50.770Z,8.58
2019-04-25T01:47:50.740Z,8.58
2019-04-25T01:48:50.747Z,8.53
2019-04-25T01:49:50.733Z,8.52
2019-04-25T01:50:50.726Z,8.52
2019-04-25T01:51:50.703Z,8.52
2019-04-25T01:52:50.689Z,8.59
2019-04-25T01:53:50.683Z,8.50
2019-04-25T01:54:50.672Z,8.56
2019-04-25T01:55:55.902Z,8.55
2019-04-25T01:56:51.643Z,8.48
2019-04-25T01:57:50.939Z,8.53
2019-04-25T01:58:51.134Z,8.44
2019-04-25T01:59:51.386Z,8.59
2019-04-25T02:00:52.066Z,8.58
2019-04-25T02:01:51.044Z,8.48
2019-04-25T02:02:51.144Z,8.55
2019-04-25T02:03:51.254Z,8.50
2019-04-25T02:04:51.430Z,8.53
2019-04-25T02:05:51.365Z,8.52
2019-04-25T02:06:50.721Z,8.48
2019-04-25T02:07:51.398Z,8.53
2019-04-25T02:08:50.883Z,8.44
2019-04-25T02:09:50.934Z,8.43
2019-04-25T02:10:50.852Z,8.30
2019-04-25T02:11:51.041Z,8.34
2019-04-25T02:12:51.375Z,8.40
2019-04-25T02:13:51.397Z,8.36
2019-04-25T02:14:50.445Z,8.34
2019-04-25T02:15:50.644Z,8.38
2019-04-25T02:16:50.440Z,8.29
2019-04-25T02:17:51.111Z,8.43
2019-04-25T02:18:51.017Z,8.37
2019-04-25T02:19:51.993Z,8.30
2019-04-25T02:20:50.387Z,8.34
2019-04-25T02:21:50.393Z,8.34
2019-04-25T02:22:50.361Z,8.30
2019-04-25T02:23:50.348Z,8.30
2019-04-25T02:24:50.347Z,8.36
2019-04-25T02:25:50.349Z,8.36
2019-04-25T02:26:50.327Z,8.41
2019-04-25T02:27:50.297Z,8.33
2019-04-25T02:28:50.288Z,8.37
2019-04-25T02:29:50.286Z,8.36
2019-04-25T02:30:50.270Z,8.36
2019-04-25T02:31:50.273Z,8.33
2019-04-25T02:32:50.244Z,8.44
2019-04-25T02:33:50.239Z,8.30
2019-04-25T02:34:50.223Z,8.33
2019-04-25T02:35:50.215Z,8.36
2019-04-25T02:36:50.279Z,8.36
2019-04-25T02:37:50.191Z,8.37
2019-04-25T02:38:50.182Z,8.44
2019-04-25T02:39:50.170Z,8.43
2019-04-25T02:40:50.155Z,8.45
2019-04-25T02:41:50.163Z,8.44
2019-04-25T02:42:50.156Z,8.44
2019-04-25T02:43:50.140Z,8.43
2019-04-25T02:44:50.116Z,8.50
2019-04-25T02:45:50.105Z,8.50
2019-04-25T02:46:50.095Z,8.48
2019-04-25T02:47:50.097Z,8.50
2019-04-25T02:48:50.069Z,8.48
2019-04-25T02:49:50.061Z,8.52
2019-04-25T02:50:50.114Z,8.52
2019-04-25T02:51:50.052Z,8.55
2019-04-25T02:52:50.054Z,8.53
2019-04-25T02:53:50.021Z,8.53
2019-04-25T02:54:50.007Z,8.58
2019-04-25T02:55:49.999Z,8.53
2019-04-25T02:56:49.983Z,8.61
2019-04-25T02:57:49.988Z,8.53
2019-04-25T02:58:49.973Z,8.55
2019-04-25T02:59:49.985Z,8.55
2019-04-25T03:00:59.763Z,8.52
2019-04-25T03:01:50.926Z,8.53
2019-04-25T03:02:49.952Z,8.52
2019-04-25T03:03:49.908Z,8.44
2019-04-25T03:04:49.920Z,8.53
2019-04-25T03:05:49.914Z,8.52
2019-04-25T03:06:49.871Z,8.43
2019-04-25T03:07:49.895Z,8.43
2019-04-25T03:08:49.848Z,8.34
2019-04-25T03:09:49.846Z,8.41
2019-04-25T03:10:49.834Z,8.33
2019-04-25T03:11:49.820Z,8.30
2019-04-25T03:12:49.825Z,8.37
2019-04-25T03:13:49.817Z,8.36
2019-04-25T03:14:49.791Z,8.33
2019-04-25T03:15:52.617Z,8.34
2019-04-25T03:16:49.776Z,8.28
2019-04-25T03:17:49.749Z,8.22
2019-04-25T03:18:49.758Z,8.25
2019-04-25T03:19:49.761Z,8.26
2019-04-25T03:20:49.770Z,8.22
2019-04-25T03:21:49.725Z,8.25
2019-04-25T03:22:49.699Z,8.26
2019-04-25T03:23:49.715Z,8.18
2019-04-25T03:24:49.680Z,8.12
2019-04-25T03:25:49.662Z,8.15
2019-04-25T03:26:49.653Z,8.08
2019-04-25T03:27:49.640Z,8.00
2019-04-25T03:28:49.647Z,8.02
2019-04-25T03:29:49.629Z,8.04
2019-04-25T03:30:49.607Z,8.04
2019-04-25T03:31:49.598Z,8.08
2019-04-25T03:32:51.685Z,8.04
2019-04-25T03:33:49.592Z,8.02
2019-04-25T03:34:49.573Z,8.08
2019-04-25T03:35:49.557Z,8.01
2019-04-25T03:36:49.543Z,8.01
2019-04-25T03:37:49.532Z,7.93
2019-04-25T03:38:49.537Z,7.95
2019-04-25T03:39:49.527Z,7.89
2019-04-25T03:40:49.500Z,7.92
2019-04-25T03:41:49.556Z,7.89
2019-04-25T03:42:49.480Z,7.86
2019-04-25T03:43:49.496Z,7.92
2019-04-25T03:44:49.475Z,7.89
2019-04-25T03:45:49.470Z,7.90
2019-04-25T03:46:49.435Z,7.86
2019-04-25T03:47:49.427Z,7.87
2019-04-25T03:48:49.754Z,7.85
2019-04-25T03:49:49.405Z,7.83
2019-04-25T03:50:49.389Z,7.85
2019-04-25T03:51:49.385Z,7.86
2019-04-25T03:52:49.378Z,7.87
2019-04-25T03:53:49.365Z,7.89
2019-04-25T03:54:49.370Z,7.87
2019-04-25T03:55:49.345Z,7.80
2019-04-25T03:56:53.587Z,7.77
2019-04-25T03:57:50.313Z,7.72
2019-04-25T03:58:49.319Z,7.74
2019-04-25T03:59:49.340Z,7.74
2019-04-25T04:00:49.284Z,7.69
2019-04-25T04:01:49.280Z,7.72
2019-04-25T04:02:49.267Z,7.75
2019-04-25T04:03:49.250Z,7.75
2019-04-25T04:04:49.262Z,7.71
2019-04-25T04:05:49.226Z,7.69
2019-04-25T04:06:49.216Z,7.74
2019-04-25T04:07:49.206Z,7.77
2019-04-25T04:08:49.197Z,7.80
2019-04-25T04:09:49.218Z,7.79
2019-04-25T04:10:49.171Z,7.80
2019-04-25T04:11:49.184Z,7.86
2019-04-25T04:12:49.151Z,7.83
2019-04-25T04:13:49.138Z,7.86
2019-04-25T04:14:49.154Z,7.85
2019-04-25T04:15:49.135Z,7.86
2019-04-25T04:16:49.108Z,7.90
2019-04-25T04:17:49.097Z,7.87
2019-04-25T04:18:49.083Z,7.86
2019-04-25T04:19:49.101Z,7.87
2019-04-25T04:20:49.059Z,7.87
2019-04-25T04:21:49.056Z,7.89
2019-04-25T04:22:49.044Z,7.86
2019-04-25T04:23:49.042Z,7.86
2019-04-25T04:24:49.047Z,7.86
2019-04-25T04:25:49.027Z,7.90
2019-04-25T04:26:48.994Z,7.95
2019-04-25T04:27:49.000Z,7.89
2019-04-25T04:28:49.007Z,7.93
2019-04-25T04:29:48.976Z,7.90
2019-04-25T04:30:48.977Z,7.90
2019-04-25T04:31:48.942Z,7.90
2019-04-25T04:32:48.932Z,7.93
2019-04-25T04:33:48.929Z,7.90
2019-04-25T04:34:48.910Z,7.95
2019-04-25T04:35:48.917Z,7.87
2019-04-25T04:36:48.887Z,7.87
2019-04-25T04:37:48.878Z,7.87
2019-04-25T04:38:48.906Z,7.85
2019-04-25T04:39:48.883Z,7.89
2019-04-25T04:40:48.857Z,7.85
2019-04-25T04:41:48.839Z,7.89
2019-04-25T04:42:48.823Z,7.92
2019-04-25T04:43:48.810Z,7.87
2019-04-25T04:44:48.808Z,7.85
2019-04-25T04:45:48.813Z,7.90
2019-04-25T04:46:48.778Z,7.87
2019-04-25T04:47:48.765Z,7.90
2019-04-25T04:48:48.757Z,7.87
2019-04-25T04:49:48.747Z,7.95
2019-04-25T04:50:48.754Z,7.93
2019-04-25T04:51:48.736Z,7.93
2019-04-25T04:52:48.712Z,7.97
2019-04-25T04:53:48.698Z,7.98
2019-04-25T04:54:48.700Z,8.02
2019-04-25T04:55:48.701Z,8.02
2019-04-25T04:56:48.669Z,8.00
2019-04-25T04:57:48.662Z,8.07
2019-04-25T04:58:48.647Z,8.07
2019-04-25T04:59:48.926Z,8.08
2019-04-25T05:00:51.420Z,8.10
2019-04-25T05:01:48.924Z,8.15
2019-04-25T05:02:48.654Z,8.15
2019-04-25T05:03:48.597Z,8.11
2019-04-25T05:04:49.232Z,8.11
2019-04-25T05:05:48.608Z,8.23
2019-04-25T05:06:48.617Z,8.33
2019-04-25T05:07:48.614Z,8.34
2019-04-25T05:08:48.561Z,8.30
2019-04-25T05:09:49.402Z,8.34
2019-04-25T05:10:48.550Z,8.34
2019-04-25T05:11:48.654Z,8.41
2019-04-25T05:12:49.238Z,8.45
2019-04-25T05:13:48.526Z,8.50
2019-04-25T05:14:48.505Z,8.56
2019-04-25T05:15:48.606Z,8.63
2019-04-25T05:16:49.617Z,8.65
2019-04-25T05:17:48.638Z,8.66
2019-04-25T05:18:48.474Z,8.76
2019-04-25T05:19:49.305Z,8.81
2019-04-25T05:20:48.536Z,8.89
2019-04-25T05:21:48.909Z,8.94
2019-04-25T05:22:48.452Z,9.01
2019-04-25T05:23:48.429Z,9.01
2019-04-25T05:24:48.397Z,9.01
2019-04-25T05:25:48.364Z,9.13
2019-04-25T05:26:48.427Z,9.15
2019-04-25T05:28:00.142Z,9.18
2019-04-25T05:28:49.322Z,9.26
2019-04-25T05:29:48.307Z,9.32
2019-04-25T05:30:48.302Z,9.31
2019-04-25T05:31:48.285Z,9.36
2019-04-25T05:32:48.421Z,9.50
2019-04-25T05:33:48.266Z,9.53
2019-04-25T05:34:49.388Z,9.56
2019-04-25T05:35:48.242Z,9.71
2019-04-25T05:36:48.237Z,9.58
2019-04-25T05:37:48.235Z,9.69
2019-04-25T05:38:48.208Z,9.83
2019-04-25T05:39:48.194Z,9.76
2019-04-25T05:40:48.186Z,9.78
2019-04-25T05:41:48.176Z,9.94
2019-04-25T05:42:48.184Z,10.05
2019-04-25T05:43:48.173Z,10.11
2019-04-25T05:44:48.144Z,10.20
2019-04-25T05:45:48.128Z,10.22
2019-04-25T05:46:48.122Z,10.25
2019-04-25T05:47:48.126Z,10.36
2019-04-25T05:48:48.113Z,10.29
2019-04-25T05:49:48.086Z,10.25
2019-04-25T05:50:48.096Z,10.40
2019-04-25T05:51:48.064Z,10.42
2019-04-25T05:52:48.099Z,10.38
2019-04-25T05:53:48.086Z,10.47
2019-04-25T05:54:48.031Z,10.45
2019-04-25T05:55:48.068Z,10.61
2019-04-25T05:56:48.025Z,10.60
2019-04-25T05:57:50.238Z,10.64
2019-04-25T05:58:47.989Z,10.67
2019-04-25T05:59:47.996Z,10.63
2019-04-25T06:00:47.973Z,10.71
2019-04-25T06:01:47.961Z,10.67
2019-04-25T06:02:47.961Z,10.78
2019-04-25T06:03:47.964Z,10.73
2019-04-25T06:04:47.921Z,10.78
2019-04-25T06:05:47.917Z,10.88
2019-04-25T06:06:47.898Z,10.88
2019-04-25T06:07:47.904Z,10.94
2019-04-25T06:08:47.881Z,11.03
2019-04-25T06:09:47.875Z,11.11
2019-04-25T06:10:47.852Z,11.25
2019-04-25T06:11:47.844Z,11.22
2019-04-25T06:12:47.854Z,11.29
2019-04-25T06:13:47.834Z,11.37
2019-04-25T06:14:47.814Z,11.43
2019-04-25T06:15:47.801Z,11.49
2019-04-25T06:16:47.817Z,11.57
2019-04-25T06:17:47.777Z,11.70
2019-04-25T06:18:47.788Z,11.80
2019-04-25T06:19:47.764Z,11.85
2019-04-25T06:20:47.762Z,11.98
2019-04-25T06:21:47.740Z,11.99
2019-04-25T06:22:47.734Z,12.07
2019-04-25T06:23:47.727Z,12.16
2019-04-25T06:24:47.702Z,12.19
2019-04-25T06:25:47.687Z,12.23
2019-04-25T06:26:47.689Z,12.34
2019-04-25T06:27:56.493Z,12.46
2019-04-25T06:28:53.595Z,12.49
2019-04-25T06:29:58.102Z,12.59
2019-04-25T06:30:48.639Z,12.68
2019-04-25T06:31:47.628Z,12.68
2019-04-25T06:32:47.612Z,12.75
2019-04-25T06:33:47.707Z,12.75
2019-04-25T06:34:47.625Z,12.83
2019-04-25T06:35:47.585Z,12.89
2019-04-25T06:36:47.590Z,12.95
2019-04-25T06:37:47.573Z,13.00
2019-04-25T06:38:47.576Z,13.10
2019-04-25T06:39:47.557Z,13.11
2019-04-25T06:40:47.526Z,13.30
2019-04-25T06:41:47.540Z,13.28
2019-04-25T06:42:47.501Z,13.29
2019-04-25T06:43:47.516Z,13.39
2019-04-25T06:44:47.502Z,13.41
2019-04-25T06:45:50.085Z,13.51
2019-04-25T06:46:47.470Z,13.52
2019-04-25T06:47:47.446Z,13.55
2019-04-25T06:48:47.434Z,13.49
2019-04-25T06:49:47.446Z,13.66
2019-04-25T06:50:47.410Z,13.73
2019-04-25T06:51:47.398Z,13.88
2019-04-25T06:52:47.393Z,13.88
2019-04-25T06:53:47.399Z,14.03
2019-04-25T06:54:47.383Z,14.00
2019-04-25T06:55:47.377Z,14.06
2019-04-25T06:56:47.346Z,14.07
2019-04-25T06:57:47.341Z,14.20
2019-04-25T06:58:47.322Z,14.29
2019-04-25T06:59:47.330Z,14.25
2019-04-25T07:00:58.084Z,14.28
2019-04-25T07:01:48.288Z,14.40
2019-04-25T07:02:47.276Z,14.45
2019-04-25T07:03:47.266Z,14.50
2019-04-25T07:04:47.271Z,14.60
2019-04-25T07:05:47.241Z,14.70
2019-04-25T07:06:49.408Z,14.80
2019-04-25T07:07:47.221Z,14.78
2019-04-25T07:08:47.225Z,14.80
2019-04-25T07:09:47.239Z,14.88
2019-04-25T07:10:47.193Z,14.83
2019-04-25T07:11:48.243Z,14.86
2019-04-25T07:12:47.170Z,14.96
2019-04-25T07:13:47.165Z,15.03
2019-04-25T07:14:47.188Z,15.16
2019-04-25T07:15:47.135Z,15.20
2019-04-25T07:16:47.121Z,15.31
2019-04-25T07:17:47.110Z,15.34
2019-04-25T07:18:47.099Z,15.47
2019-04-25T07:19:47.127Z,15.49
2019-04-25T07:20:47.100Z,15.56
2019-04-25T07:21:47.068Z,15.56
2019-04-25T07:22:47.061Z,15.57
2019-04-25T07:23:47.049Z,15.69
2019-04-25T07:24:47.042Z,15.69
2019-04-25T07:25:47.039Z,15.65
2019-04-25T07:26:47.017Z,15.72
2019-04-25T07:27:47.009Z,15.78
2019-04-25T07:28:46.994Z,15.75
2019-04-25T07:29:46.981Z,15.82
2019-04-25T07:30:51.935Z,15.84
2019-04-25T07:31:47.957Z,15.90
2019-04-25T07:32:46.946Z,15.93
2019-04-25T07:33:46.942Z,15.96
2019-04-25T07:34:46.937Z,16.08
2019-04-25T07:35:46.951Z,16.20
2019-04-25T07:36:46.903Z,16.23
2019-04-25T07:37:46.898Z,16.24
2019-04-25T07:38:46.930Z,16.34
2019-04-25T07:39:46.883Z,16.41
2019-04-25T07:40:46.879Z,16.57
2019-04-25T07:41:46.845Z,16.60
2019-04-25T07:42:46.849Z,16.68
2019-04-25T07:43:46.836Z,16.78
2019-04-25T07:44:52.569Z,16.83
2019-04-25T07:45:47.818Z,16.86
2019-04-25T07:46:46.793Z,16.86
2019-04-25T07:47:46.811Z,16.94
2019-04-25T07:48:46.787Z,17.03
2019-04-25T07:49:46.765Z,17.04
2019-04-25T07:50:46.770Z,17.07
2019-04-25T07:51:46.740Z,17.18
2019-04-25T07:52:46.730Z,17.15
2019-04-25T07:53:46.740Z,17.25
2019-04-25T07:54:46.736Z,17.36
2019-04-25T07:55:46.718Z,17.34
2019-04-25T07:56:46.713Z,17.43
2019-04-25T07:57:46.668Z,17.49
2019-04-25T07:58:52.156Z,17.63
2019-04-25T07:59:47.666Z,17.64
2019-04-25T08:00:46.635Z,17.75
2019-04-25T08:01:46.650Z,17.87
2019-04-25T08:02:46.614Z,17.82
2019-04-25T08:03:46.607Z,17.93
2019-04-25T08:04:46.591Z,17.96
2019-04-25T08:05:46.586Z,18.07
2019-04-25T08:06:46.587Z,18.03
2019-04-25T08:07:46.562Z,18.11
2019-04-25T08:08:46.600Z,18.17
2019-04-25T08:09:46.535Z,18.23
2019-04-25T08:10:46.532Z,18.29
2019-04-25T08:11:46.539Z,18.30
2019-04-25T08:12:47.482Z,18.36
2019-04-25T08:13:46.496Z,18.35
2019-04-25T08:14:46.484Z,18.39
2019-04-25T08:15:46.477Z,18.48
2019-04-25T08:16:46.514Z,18.50
2019-04-25T08:17:46.451Z,18.52
2019-04-25T08:18:46.438Z,18.54
2019-04-25T08:19:46.425Z,18.55
2019-04-25T08:20:46.604Z,18.66
2019-04-25T08:21:46.424Z,18.72
2019-04-25T08:22:55.821Z,18.70
2019-04-25T08:23:47.382Z,18.75
2019-04-25T08:24:46.407Z,18.76
2019-04-25T08:25:46.360Z,18.84
2019-04-25T08:26:46.377Z,18.92
2019-04-25T08:27:46.355Z,18.92
2019-04-25T08:28:54.804Z,19.02
2019-04-25T08:29:47.346Z,19.00
2019-04-25T08:30:46.311Z,19.08
2019-04-25T08:31:46.309Z,19.06
2019-04-25T08:32:46.308Z,19.00
2019-04-25T08:33:46.727Z,19.00
2019-04-25T08:34:46.270Z,19.14
2019-04-25T08:36:03.456Z,19.07
2019-04-25T08:36:47.283Z,19.06
2019-04-25T08:37:46.229Z,19.18
2019-04-25T08:38:46.222Z,19.10
2019-04-25T08:39:46.224Z,19.11
2019-04-25T08:40:46.194Z,19.11
2019-04-25T08:41:46.188Z,19.06
2019-04-25T08:42:46.192Z,19.06
2019-04-25T08:43:46.171Z,19.25
2019-04-25T08:44:46.158Z,19.29
2019-04-25T08:45:46.138Z,19.39
2019-04-25T08:46:48.686Z,19.41
2019-04-25T08:47:46.150Z,19.43
2019-04-25T08:48:46.108Z,19.59
2019-04-25T08:49:46.207Z,19.58
2019-04-25T08:50:46.085Z,19.76
2019-04-25T08:51:46.081Z,19.65
2019-04-25T08:52:46.101Z,19.73
2019-04-25T08:53:46.056Z,19.73
2019-04-25T08:54:47.677Z,19.69
2019-04-25T08:55:46.037Z,19.77
2019-04-25T08:56:46.023Z,19.81
2019-04-25T08:57:46.012Z,19.71
2019-04-25T08:58:46.022Z,19.66
2019-04-25T08:59:52.340Z,19.66
2019-04-25T09:00:58.069Z,19.77
2019-04-25T09:01:46.966Z,19.76
2019-04-25T09:02:45.965Z,19.81
2019-04-25T09:03:45.963Z,19.83
2019-04-25T09:04:45.933Z,20.01
2019-04-25T09:05:46.323Z,20.06
2019-04-25T09:06:45.918Z,20.11
2019-04-25T09:07:45.903Z,20.21
2019-04-25T09:08:46.652Z,20.24
2019-04-25T09:09:45.879Z,20.26
2019-04-25T09:10:45.868Z,20.28
2019-04-25T09:11:46.992Z,20.31
2019-04-25T09:12:45.883Z,20.38
2019-04-25T09:13:45.855Z,20.33
2019-04-25T09:14:46.476Z,20.35
2019-04-25T09:15:45.894Z,20.36
2019-04-25T09:16:45.806Z,20.42
2019-04-25T09:17:47.053Z,20.48
2019-04-25T09:18:46.507Z,20.35
2019-04-25T09:19:45.777Z,20.41
2019-04-25T09:20:46.691Z,20.41
2019-04-25T09:21:49.376Z,20.35
2019-04-25T09:22:45.738Z,20.31
2019-04-25T09:23:45.767Z,20.35
2019-04-25T09:24:45.714Z,20.28
2019-04-25T09:25:46.214Z,20.31
2019-04-25T09:26:45.703Z,20.29
2019-04-25T09:27:47.002Z,20.24
2019-04-25T09:28:46.691Z,20.28
2019-04-25T09:29:46.329Z,20.29
2019-04-25T09:30:45.969Z,20.24
2019-04-25T09:31:46.085Z,20.20
2019-04-25T09:32:45.802Z,20.21
2019-04-25T09:33:46.720Z,20.20
2019-04-25T09:34:45.945Z,20.10
2019-04-25T09:35:46.042Z,20.05
2019-04-25T09:36:45.585Z,20.02
2019-04-25T09:37:46.241Z,20.03
2019-04-25T09:38:48.466Z,19.99
2019-04-25T09:39:45.641Z,19.98
2019-04-25T09:40:46.592Z,20.05
2019-04-25T09:41:46.205Z,20.08
2019-04-25T09:42:46.291Z,20.03
2019-04-25T09:43:46.029Z,20.08
2019-04-25T09:44:45.494Z,20.18
2019-04-25T09:45:46.102Z,20.32
2019-04-25T09:46:46.850Z,20.20
2019-04-25T09:47:45.761Z,20.36
2019-04-25T09:48:45.832Z,20.39
2019-04-25T09:49:46.280Z,20.39
2019-04-25T09:50:46.346Z,20.36
2019-04-25T09:51:45.786Z,20.50
2019-04-25T09:52:47.037Z,20.41
2019-04-25T09:53:50.042Z,20.55
2019-04-25T09:54:46.448Z,20.57
2019-04-25T09:55:47.210Z,20.43
2019-04-25T09:56:46.075Z,20.55
2019-04-25T09:57:45.922Z,20.64
2019-04-25T09:58:48.273Z,20.61
2019-04-25T09:59:46.210Z,20.57
2019-04-25T10:00:45.983Z,20.64
2019-04-25T10:01:45.942Z,20.59
2019-04-25T10:02:45.301Z,20.70
2019-04-25T10:03:45.733Z,20.64
2019-04-25T10:04:46.358Z,20.73
2019-04-25T10:05:45.298Z,20.76
2019-04-25T10:06:46.039Z,20.73
2019-04-25T10:07:46.214Z,20.79
2019-04-25T10:08:46.260Z,20.74
2019-04-25T10:09:46.240Z,20.79
2019-04-25T10:10:45.215Z,20.84
2019-04-25T10:11:46.402Z,20.87
2019-04-25T10:12:45.360Z,20.80
2019-04-25T10:13:45.202Z,20.82
2019-04-25T10:14:47.598Z,20.85
2019-04-25T10:15:45.666Z,20.92
2019-04-25T10:16:45.590Z,20.91
2019-04-25T10:17:46.111Z,20.92
2019-04-25T10:18:45.875Z,20.94
2019-04-25T10:19:45.607Z,20.95
2019-04-25T10:20:46.262Z,21.01
2019-04-25T10:21:45.231Z,21.04
2019-04-25T10:22:45.667Z,20.99
2019-04-25T10:23:46.601Z,21.01
2019-04-25T10:24:58.348Z,21.01
2019-04-25T10:25:46.540Z,21.07
2019-04-25T10:26:45.430Z,21.04
2019-04-25T10:27:48.220Z,21.10
2019-04-25T10:28:45.262Z,21.16
2019-04-25T10:29:50.914Z,21.13
2019-04-25T10:30:46.918Z,21.27
2019-04-25T10:31:45.220Z,21.24
2019-04-25T10:32:45.386Z,21.24
2019-04-25T10:33:45.815Z,21.27
2019-04-25T10:34:46.088Z,21.25
2019-04-25T10:35:51.911Z,21.22
2019-04-25T10:36:46.759Z,21.31
2019-04-25T10:37:45.636Z,21.28
2019-04-25T10:39:01.405Z,21.29
2019-04-25T10:39:46.042Z,21.21
2019-04-25T10:40:46.132Z,21.13
2019-04-25T10:41:46.530Z,21.09
2019-04-25T10:42:48.071Z,21.13
2019-04-25T10:43:45.979Z,21.17
2019-04-25T10:44:46.849Z,21.14
2019-04-25T10:45:46.352Z,21.22
2019-04-25T10:46:46.134Z,21.14
2019-04-25T10:47:45.267Z,21.14
2019-04-25T10:48:44.808Z,21.14
2019-04-25T10:49:45.872Z,21.19
2019-04-25T10:50:45.961Z,21.31
2019-04-25T10:51:45.796Z,21.14
2019-04-25T10:52:46.178Z,21.21
2019-04-25T10:53:45.978Z,21.09
2019-04-25T10:54:45.772Z,21.06
2019-04-25T10:55:45.494Z,21.04
2019-04-25T10:56:47.019Z,21.07
2019-04-25T10:57:45.526Z,21.07
2019-04-25T10:58:46.378Z,21.01
2019-04-25T10:59:55.254Z,20.95
2019-04-25T11:00:47.313Z,20.98
2019-04-25T11:01:46.055Z,20.95
2019-04-25T11:02:45.489Z,21.01
2019-04-25T11:03:45.558Z,21.06
2019-04-25T11:04:48.251Z,20.99
2019-04-25T11:05:45.205Z,20.99
2019-04-25T11:06:45.520Z,21.04
2019-04-25T11:07:44.581Z,21.04
2019-04-25T11:08:44.937Z,21.03
2019-04-25T11:09:45.493Z,21.13
2019-04-25T11:10:47.507Z,21.04
2019-04-25T11:11:44.580Z,21.17
2019-04-25T11:12:45.383Z,21.19
2019-04-25T11:13:45.271Z,21.14
2019-04-25T11:14:44.520Z,21.21
2019-04-25T11:15:44.941Z,21.28
2019-04-25T11:16:45.561Z,21.27
2019-04-25T11:17:45.810Z,21.35
2019-04-25T11:18:45.451Z,21.29
2019-04-25T11:19:44.617Z,21.34
2019-04-25T11:20:44.712Z,21.40
2019-04-25T11:21:45.620Z,21.29
2019-04-25T11:22:45.084Z,21.40
2019-04-25T11:23:47.677Z,21.44
2019-04-25T11:24:44.438Z,21.49
2019-04-25T11:25:45.281Z,21.56
2019-04-25T11:26:47.113Z,21.53
2019-04-25T11:27:47.031Z,21.54
2019-04-25T11:28:45.360Z,21.64
2019-04-25T11:29:45.041Z,21.62
2019-04-25T11:30:45.870Z,21.64
2019-04-25T11:31:45.771Z,21.67
2019-04-25T11:32:45.166Z,21.79
2019-04-25T11:33:44.297Z,21.72
2019-04-25T11:34:46.123Z,21.75
2019-04-25T11:35:46.811Z,21.83
2019-04-25T11:36:44.269Z,21.84
2019-04-25T11:37:44.270Z,21.79
2019-04-25T11:38:45.291Z,21.82
2019-04-25T11:39:45.058Z,21.86
2019-04-25T11:40:47.835Z,21.79
2019-04-25T11:41:46.056Z,21.79
2019-04-25T11:42:45.924Z,21.84
2019-04-25T11:43:46.239Z,21.86
2019-04-25T11:44:45.477Z,21.79
2019-04-25T11:45:45.087Z,21.79
2019-04-25T11:46:45.329Z,21.90
2019-04-25T11:47:45.912Z,21.90
2019-04-25T11:48:45.095Z,21.98
2019-04-25T11:49:46.396Z,21.94
2019-04-25T11:50:48.451Z,22.06
2019-04-25T11:51:46.062Z,22.09
2019-04-25T11:52:44.113Z,22.07
2019-04-25T11:53:45.264Z,22.12
2019-04-25T11:54:45.741Z,22.18
2019-04-25T11:55:44.843Z,22.18
2019-04-25T11:56:45.944Z,22.21
2019-04-25T11:57:47.349Z,22.18
2019-04-25T11:58:46.499Z,22.25
2019-04-25T11:59:45.210Z,22.20
2019-04-25T12:00:45.785Z,22.25
2019-04-25T12:01:45.352Z,22.22
2019-04-25T12:02:44.171Z,22.30
2019-04-25T12:03:46.610Z,22.30
2019-04-25T12:04:45.518Z,22.36
2019-04-25T12:05:45.837Z,22.37
2019-04-25T12:06:46.981Z,22.45
2019-04-25T12:07:45.359Z,22.35
2019-04-25T12:08:46.427Z,22.46
2019-04-25T12:09:45.798Z,22.46
2019-04-25T12:10:45.803Z,22.65
2019-04-25T12:11:46.514Z,22.62
2019-04-25T12:12:46.264Z,22.62
2019-04-25T12:13:45.901Z,22.65
2019-04-25T12:14:45.090Z,22.68
2019-04-25T12:15:46.040Z,22.76
2019-04-25T12:16:48.166Z,22.79
2019-04-25T12:17:44.874Z,22.85
2019-04-25T12:18:47.618Z,22.85
2019-04-25T12:19:44.808Z,22.97
2019-04-25T12:20:44.725Z,23.02
2019-04-25T12:21:44.705Z,23.09
2019-04-25T12:22:45.377Z,23.04
2019-04-25T12:23:46.017Z,23.07
2019-04-25T12:24:45.367Z,23.00
2019-04-25T12:25:45.331Z,23.22
2019-04-25T12:26:46.103Z,23.22
2019-04-25T12:27:45.267Z,23.17
2019-04-25T12:28:43.702Z,23.33
2019-04-25T12:29:44.040Z,23.36
2019-04-25T12:30:44.846Z,23.40
2019-04-25T12:31:45.463Z,23.48
2019-04-25T12:32:44.182Z,23.57
2019-04-25T12:33:46.346Z,23.60
2019-04-25T12:34:43.655Z,23.68
2019-04-25T12:35:43.856Z,23.80
2019-04-25T12:36:44.405Z,23.97
2019-04-25T12:37:44.194Z,24.05
2019-04-25T12:38:44.981Z,24.13
2019-04-25T12:39:43.626Z,24.30
2019-04-25T12:40:43.604Z,24.47
2019-04-25T12:41:44.133Z,24.57
2019-04-25T12:42:44.459Z,24.67
2019-04-25T12:43:43.945Z,24.81
2019-04-25T12:44:46.252Z,24.95
2019-04-25T12:45:43.517Z,24.93
2019-04-25T12:46:43.677Z,25.10
2019-04-25T12:47:43.492Z,25.06
2019-04-25T12:48:43.493Z,25.10
2019-04-25T12:49:43.834Z,25.08
2019-04-25T12:50:43.951Z,25.09
2019-04-25T12:51:43.457Z,25.18
2019-04-25T12:52:43.499Z,25.25
2019-04-25T12:53:43.846Z,25.30
2019-04-25T12:54:44.047Z,25.36
2019-04-25T12:55:44.256Z,25.36
2019-04-25T12:56:43.453Z,25.43
2019-04-25T12:57:43.406Z,25.51
2019-04-25T12:58:43.551Z,25.62
2019-04-25T12:59:45.113Z,25.60
2019-04-25T13:00:49.475Z,25.69
2019-04-25T13:01:44.343Z,25.70
2019-04-25T13:02:44.694Z,25.79
2019-04-25T13:03:43.955Z,25.73